Time;durP1;ratioP1;P1;durP2;ratioP2;P2;SDS_P1;SDS_P2;PMS_P1;PMS_P2;Temp;Humidity;BMP_temperature;BMP_pressure;BME280_temperature;BME280_humidity;BME280_pressure;Samples;Min_cycle;Max_cycle;Signal;HPM_P1;HPM_P2
2023/03/18 00:00:10;;;;;;;;;13.25;13.25;;;;;13.27;65.84;100722.06;5050350;28;10335;-67
2023/03/18 00:02:38;;;;;;;;;15.00;14.25;;;;;13.24;65.91;100716.25;5050355;28;10143;-67
2023/03/18 00:05:06;;;;;;;;;16.50;13.25;;;;;13.19;65.96;100708.75;5050152;28;10419;-68
2023/03/18 00:07:34;;;;;;;;;15.00;14.50;;;;;13.18;66.21;100714.41;5047648;28;10325;-68
2023/03/18 00:10:02;;;;;;;;;24.75;16.25;;;;;13.13;66.04;100717.75;5047916;28;9972;-67
2023/03/18 00:12:30;;;;;;;;;19.00;16.25;;;;;13.09;66.22;100719.22;5050243;28;10396;-67
2023/03/18 00:14:56;;;;;;;;;15.75;15.75;;;;;13.05;66.27;100723.38;5047025;28;10507;-67
2023/03/18 00:17:22;;;;;;;;;19.75;19.00;;;;;13.02;66.33;100719.22;5031674;28;10324;-67
2023/03/18 00:19:49;;;;;;;;;19.50;12.75;;;;;13.01;66.45;100722.16;5032103;28;10385;-68
2023/03/18 00:22:16;;;;;;;;;23.25;16.50;;;;;12.97;66.47;100726.31;5049929;28;10405;-67
2023/03/18 00:24:42;;;;;;;;;16.25;15.50;;;;;12.96;66.77;100724.66;5049637;28;10349;-67
2023/03/18 00:27:09;;;;;;;;;20.25;14.50;;;;;12.95;66.88;100723.81;5050133;28;10317;-67
2023/03/18 00:29:36;;;;;;;;;15.50;14.25;;;;;12.94;66.89;100726.75;5029140;28;10246;-68
2023/03/18 00:32:04;;;;;;;;;21.50;19.75;;;;;12.90;66.81;100723.63;5048697;28;10473;-66
2023/03/18 00:34:30;;;;;;;;;16.00;16.00;;;;;12.86;67.09;100727.81;5048240;28;10513;-67
2023/03/18 00:36:56;;;;;;;;;16.25;16.25;;;;;12.85;67.31;100732.38;5032082;28;10294;-67
2023/03/18 00:39:25;;;;;;;;;20.25;17.50;;;;;12.84;67.48;100727.16;5049775;28;10231;-66
2023/03/18 00:41:54;;;;;;;;;19.50;15.50;;;;;12.86;67.43;100730.50;5048527;28;11198;-66
2023/03/18 00:44:22;;;;;;;;;20.25;17.50;;;;;12.86;67.31;100731.34;5033493;28;11197;-66
2023/03/18 00:46:49;;;;;;;;;16.00;15.75;;;;;12.86;67.63;100736.72;5031774;28;11104;-66
2023/03/18 00:49:16;;;;;;;;;14.00;11.75;;;;;12.85;67.59;100734.25;5049706;28;10529;-67
2023/03/18 00:51:43;;;;;;;;;20.25;20.00;;;;;12.84;67.77;100737.97;5032703;28;10592;-67
2023/03/18 00:54:12;;;;;;;;;18.50;16.50;;;;;12.83;67.60;100736.31;5049331;28;10374;-66
2023/03/18 00:56:39;;;;;;;;;23.00;18.50;;;;;12.81;67.79;100739.25;5049708;28;10642;-67
2023/03/18 00:59:07;;;;;;;;;19.00;19.00;;;;;12.79;67.56;100738.63;5030962;28;10675;-67
2023/03/18 01:01:35;;;;;;;;;17.75;15.50;;;;;12.78;68.17;100734.25;5031572;28;10497;-66
2023/03/18 01:04:03;;;;;;;;;20.50;18.25;;;;;12.74;67.94;100733.03;5049389;28;10550;-68
2023/03/18 01:06:33;;;;;;;;;21.75;19.75;;;;;12.71;67.82;100736.13;5049545;28;10449;-67
2023/03/18 01:09:00;;;;;;;;;21.75;21.25;;;;;12.68;67.97;100750.09;5049619;28;10527;-66
2023/03/18 01:11:27;;;;;;;;;23.00;17.00;;;;;12.67;68.27;100740.31;5047650;28;10639;-67
2023/03/18 01:13:55;;;;;;;;;26.75;22.25;;;;;12.67;68.37;100734.06;5031412;28;10547;-67
2023/03/18 01:16:22;;;;;;;;;19.50;18.75;;;;;12.65;68.56;100739.69;5031705;28;10574;-66
2023/03/18 01:18:49;;;;;;;;;17.25;17.25;;;;;12.66;68.18;100743.22;5049481;28;10431;-67
2023/03/18 01:21:17;;;;;;;;;22.50;21.50;;;;;12.66;68.41;100740.53;5031494;28;10671;-66
2023/03/18 01:23:50;;;;;;;;;32.00;26.00;;;;;12.62;68.47;100732.00;5011548;28;10642;-66
2023/03/18 01:26:17;;;;;;;;;26.00;22.50;;;;;12.61;68.56;100733.06;5012888;28;10797;-68
2023/03/18 01:28:46;;;;;;;;;21.75;19.25;;;;;12.63;68.24;100730.97;5030338;28;10695;-66
2023/03/18 01:31:12;;;;;;;;;21.00;21.00;;;;;12.61;68.67;100727.66;5031438;28;10721;-66
2023/03/18 01:33:40;;;;;;;;;21.00;19.25;;;;;12.59;68.84;100727.03;5031316;28;10497;-66
2023/03/18 01:36:07;;;;;;;;;26.75;24.50;;;;;12.59;68.87;100727.03;5031288;28;10475;-66
2023/03/18 01:38:33;;;;;;;;;28.50;25.25;;;;;12.56;68.89;100724.75;5014621;28;10732;-67
2023/03/18 01:41:10;;;;;;;;;26.00;22.50;;;;;12.54;68.89;100724.13;5029926;28;10646;-66
2023/03/18 01:43:40;;;;;;;;;31.25;28.25;;;;;12.46;68.87;100725.16;5060201;28;10763;-66
2023/03/18 01:46:29;;;;;;;;;30.50;29.25;;;;;12.46;69.13;100730.56;5029976;28;10956;-67
2023/03/18 01:48:58;;;;;;;;;25.00;23.50;;;;;12.44;69.45;100716.47;5048567;28;10915;-66
2023/03/18 01:51:26;;;;;;;;;25.25;24.50;;;;;12.44;69.43;100721.03;5031788;28;10536;-67
2023/03/18 01:53:56;;;;;;;;;27.50;24.00;;;;;12.41;69.24;100716.88;5034764;28;10783;-67
2023/03/18 01:56:23;;;;;;;;;23.75;22.50;;;;;12.40;69.47;100722.47;5033534;28;11871;-67
2023/03/18 01:58:52;;;;;;;;;28.00;22.50;;;;;12.41;69.53;100722.28;5034620;28;10715;-67
2023/03/18 02:01:25;;;;;;;;;19.50;18.25;;;;;12.41;69.72;100726.84;5034898;28;10690;-67
2023/03/18 02:03:54;;;;;;;;;29.25;24.75;;;;;12.38;69.28;100728.09;5034531;28;11191;-67
2023/03/18 02:06:21;;;;;;;;;27.75;25.75;;;;;12.36;69.69;100725.59;5034515;28;10691;-67
2023/03/18 02:08:55;;;;;;;;;26.00;23.75;;;;;12.37;69.50;100716.47;5034323;28;11063;-67
2023/03/18 02:11:22;;;;;;;;;22.50;20.25;;;;;12.37;69.76;100723.75;5031216;28;10812;-67
2023/03/18 02:13:53;;;;;;;;;23.50;20.25;;;;;12.36;69.98;100720.22;5031613;28;10952;-67
2023/03/18 02:16:29;;;;;;;;;26.00;24.50;;;;;12.38;69.67;100731.63;5029736;28;10486;-67
2023/03/18 02:19:11;;;;;;;;;25.00;23.50;;;;;12.40;69.79;100728.72;5034318;28;10636;-67
2023/03/18 02:22:09;;;;;;;;;26.00;21.75;;;;;12.40;69.82;100733.28;5034365;28;10732;-67
2023/03/18 02:24:55;;;;;;;;;25.75;23.00;;;;;12.34;69.83;100733.06;5046326;28;10878;-67
2023/03/18 02:27:25;;;;;;;;;25.50;23.00;;;;;12.34;69.76;100733.06;5034435;28;10551;-67
2023/03/18 02:29:58;;;;;;;;;27.75;20.25;;;;;12.30;70.03;100736.41;5032273;28;10472;-66
2023/03/18 02:32:30;;;;;;;;;29.75;27.50;;;;;12.28;70.04;100738.50;5067754;28;10523;-67
2023/03/18 02:35:01;;;;;;;;;26.25;24.75;;;;;12.25;69.86;100739.72;5051105;28;10641;-67
2023/03/18 02:37:29;;;;;;;;;28.75;27.00;;;;;12.27;69.93;100744.91;5030698;28;10668;-67
2023/03/18 02:40:25;;;;;;;;;38.25;32.75;;;;;12.24;70.22;100748.88;5046986;28;10830;-66
2023/03/18 02:42:52;;;;;;;;;31.25;29.50;;;;;12.25;70.17;100755.91;5017857;28;10958;-67
2023/03/18 02:45:40;;;;;;;;;29.50;25.75;;;;;12.28;70.21;100758.22;5047208;28;10857;-67
2023/03/18 02:48:19;;;;;;;;;29.00;26.00;;;;;12.27;70.35;100764.63;5020529;28;11011;-66
2023/03/18 02:50:47;;;;;;;;;27.00;26.00;;;;;12.28;70.51;100762.78;5033716;28;10832;-67
2023/03/18 02:53:14;;;;;;;;;28.00;24.00;;;;;12.30;70.27;100766.91;5044501;28;10847;-66
2023/03/18 02:55:41;;;;;;;;;27.50;26.25;;;;;12.29;70.19;100767.13;5033775;28;10831;-67
2023/03/18 02:58:08;;;;;;;;;28.00;25.25;;;;;12.29;70.51;100759.88;5027432;28;10870;-66
2023/03/18 03:00:35;;;;;;;;;20.25;18.00;;;;;12.30;70.21;100768.78;5033888;28;10787;-65
2023/03/18 03:03:02;;;;;;;;;23.25;21.25;;;;;12.29;70.70;100765.25;5050923;28;10714;-66
2023/03/18 03:05:32;;;;;;;;;27.00;23.75;;;;;12.32;70.48;100767.56;5033800;28;10563;-66
2023/03/18 03:07:59;;;;;;;;;29.75;29.25;;;;;12.33;70.53;100766.50;5033558;28;10923;-65
2023/03/18 03:10:28;;;;;;;;;27.00;27.00;;;;;12.33;70.46;100758.41;5050810;28;10861;-65
2023/03/18 03:12:56;;;;;;;;;32.00;28.25;;;;;12.31;70.11;100763.16;5033568;28;10931;-66
2023/03/18 03:15:23;;;;;;;;;29.00;28.00;;;;;12.30;70.18;100758.00;5014141;28;10980;-66
2023/03/18 03:17:54;;;;;;;;;28.00;25.50;;;;;12.30;70.45;100764.22;5030551;28;10869;-65
2023/03/18 03:20:20;;;;;;;;;27.75;24.75;;;;;12.30;70.32;100772.31;5031897;28;10708;-66
2023/03/18 03:22:47;;;;;;;;;26.00;24.25;;;;;12.29;70.43;100770.66;5050682;28;10872;-67
2023/03/18 03:25:16;;;;;;;;;23.00;21.75;;;;;12.29;70.52;100767.97;5033030;28;10783;-66
2023/03/18 03:27:42;;;;;;;;;28.75;25.00;;;;;12.27;70.50;100769.19;5033841;28;10803;-66
2023/03/18 03:30:11;;;;;;;;;23.75;22.75;;;;;12.26;70.62;100770.25;5049792;28;10705;-66
2023/03/18 03:32:38;;;;;;;;;30.75;25.25;;;;;12.24;70.50;100767.75;5032807;28;10572;-66
2023/03/18 03:35:07;;;;;;;;;27.75;24.00;;;;;12.23;70.73;100765.25;5049612;28;10858;-66
2023/03/18 03:37:35;;;;;;;;;29.00;24.50;;;;;12.21;70.72;100773.56;5050017;28;10781;-66
2023/03/18 03:40:05;;;;;;;;;26.50;23.50;;;;;12.21;70.65;100772.75;5050780;28;10790;-66
2023/03/18 03:42:31;;;;;;;;;27.00;25.75;;;;;12.20;70.72;100774.59;5052060;28;10852;-65
2023/03/18 03:44:57;;;;;;;;;26.00;24.50;;;;;12.19;70.60;100772.09;5051704;28;10778;-65
2023/03/18 03:47:24;;;;;;;;;27.00;25.75;;;;;12.15;70.83;100771.66;5030634;28;10772;-66
2023/03/18 03:49:51;;;;;;;;;22.25;18.25;;;;;12.16;70.77;100776.06;5027937;28;10905;-66
2023/03/18 03:52:18;;;;;;;;;25.00;24.50;;;;;12.15;70.83;100770.84;5045005;28;10890;-65
2023/03/18 03:54:47;;;;;;;;;32.25;30.25;;;;;12.13;71.02;100777.28;5031734;28;10725;-67
2023/03/18 03:57:13;;;;;;;;;28.25;26.00;;;;;12.10;71.30;100769.59;5030130;28;11530;-65
2023/03/18 03:59:40;;;;;;;;;27.00;26.50;;;;;12.13;71.23;100769.19;5017035;28;10976;-65
2023/03/18 04:02:13;;;;;;;;;29.75;29.00;;;;;12.15;70.94;100779.78;5029306;28;10997;-65
2023/03/18 04:04:40;;;;;;;;;39.75;37.25;;;;;12.15;70.86;100787.03;5031921;28;11642;-65
2023/03/18 04:07:13;;;;;;;;;35.50;33.50;;;;;12.10;71.33;100779.56;5029087;28;11287;-65
2023/03/18 04:09:40;;;;;;;;;30.75;30.75;;;;;12.08;71.48;100785.19;5025493;28;10948;-65
2023/03/18 04:12:08;;;;;;;;;35.00;29.00;;;;;12.09;71.70;100786.84;5031772;28;11141;-66
2023/03/18 04:14:35;;;;;;;;;33.50;32.75;;;;;12.07;71.46;100780.81;5030941;28;10891;-65
2023/03/18 04:17:01;;;;;;;;;32.25;32.25;;;;;12.07;71.51;100780.81;5032236;28;11192;-66
2023/03/18 04:19:29;;;;;;;;;41.75;36.50;;;;;12.07;71.89;100788.06;5065038;28;10875;-65
2023/03/18 04:21:55;;;;;;;;;43.00;37.50;;;;;12.07;72.22;100779.97;5049829;28;11890;-65
2023/03/18 04:24:22;;;;;;;;;42.50;35.25;;;;;12.02;72.61;100774.38;5031708;28;11408;-65
2023/03/18 04:26:49;;;;;;;;;39.00;32.25;;;;;12.06;72.55;100789.94;5048541;28;10883;-65
2023/03/18 04:29:16;;;;;;;;;31.00;30.50;;;;;12.03;73.06;100789.50;5014777;28;11748;-66
2023/03/18 04:31:43;;;;;;;;;38.25;33.25;;;;;12.03;73.32;100794.91;5031649;28;10998;-65
2023/03/18 04:34:10;;;;;;;;;39.50;35.75;;;;;12.01;73.45;100791.59;5049130;28;11079;-66
2023/03/18 04:36:37;;;;;;;;;44.75;40.50;;;;;11.96;73.57;100797.63;5048861;28;10989;-66
2023/03/18 04:39:03;;;;;;;;;48.00;40.75;;;;;11.96;74.17;100815.66;5032659;28;11489;-66
2023/03/18 04:41:31;;;;;;;;;45.50;40.75;;;;;11.95;74.22;100813.97;5032106;28;11469;-66
2023/03/18 04:44:01;;;;;;;;;39.00;36.25;;;;;11.93;74.43;100822.28;5030844;28;13727;-65
2023/03/18 04:46:36;;;;;;;;;32.50;30.75;;;;;11.91;74.99;100823.50;5032247;28;12195;-66
2023/03/18 04:49:04;;;;;;;;;47.25;39.75;;;;;11.90;74.85;100827.25;5032450;28;11059;-66
2023/03/18 04:51:30;;;;;;;;;46.00;39.75;;;;;11.88;75.20;100808.59;5031585;28;11479;-66
2023/03/18 04:53:57;;;;;;;;;44.75;41.25;;;;;11.85;75.48;100822.47;5049642;28;11875;-67
2023/03/18 04:56:28;;;;;;;;;46.00;41.00;;;;;11.80;75.37;100816.84;5028313;28;11547;-67
2023/03/18 04:58:56;;;;;;;;;46.00;40.75;;;;;11.79;76.09;100820.56;5023179;28;11482;-66
2023/03/18 05:01:27;;;;;;;;;37.00;33.50;;;;;11.78;76.13;100814.31;5020352;28;11479;-66
2023/03/18 05:03:53;;;;;;;;;41.75;37.50;;;;;11.79;76.32;100824.09;5031433;28;11036;-65
2023/03/18 05:06:27;;;;;;;;;41.75;35.50;;;;;11.78;76.27;100818.88;5030640;28;11300;-66
2023/03/18 05:08:58;;;;;;;;;41.25;34.75;;;;;11.78;76.45;100816.19;5058048;28;11252;-66
2023/03/18 05:11:27;;;;;;;;;45.25;40.50;;;;;11.73;76.74;100832.97;5031833;28;10939;-65
2023/03/18 05:13:57;;;;;;;;;40.25;37.50;;;;;11.70;77.14;100840.63;5040359;28;11190;-67
2023/03/18 05:16:23;;;;;;;;;37.25;34.25;;;;;11.70;77.39;100841.47;5031766;28;11304;-64
2023/03/18 05:18:52;;;;;;;;;36.75;33.75;;;;;11.70;77.55;100851.44;5030967;28;11295;-66
2023/03/18 05:21:18;;;;;;;;;34.75;31.50;;;;;11.68;77.73;100851.63;5033086;28;11263;-66
2023/03/18 05:23:46;;;;;;;;;42.75;36.00;;;;;11.68;77.66;100854.34;5031746;28;11074;-66
2023/03/18 05:26:12;;;;;;;;;48.25;42.50;;;;;11.66;77.69;100852.84;5033266;28;11199;-66
2023/03/18 05:28:42;;;;;;;;;40.25;38.00;;;;;11.62;77.76;100857.81;5034073;28;11467;-66
2023/03/18 05:31:25;;;;;;;;;44.00;40.00;;;;;11.56;77.91;100862.16;5035544;28;11445;-66
2023/03/18 05:33:52;;;;;;;;;47.75;41.25;;;;;11.57;78.52;100860.28;5035501;28;12178;-66
2023/03/18 05:36:20;;;;;;;;;43.25;38.25;;;;;11.56;78.21;100867.56;5034767;28;11545;-67
2023/03/18 05:39:03;;;;;;;;;42.50;37.75;;;;;11.55;78.20;100856.97;5028735;28;11484;-66
2023/03/18 05:41:29;;;;;;;;;41.25;33.00;;;;;11.59;78.78;100850.16;5030081;28;11299;-66
2023/03/18 05:43:56;;;;;;;;;42.25;38.25;;;;;11.60;78.49;100849.13;5018377;28;11267;-66
2023/03/18 05:46:24;;;;;;;;;36.50;33.75;;;;;11.62;78.33;100850.56;5033260;28;11122;-67
2023/03/18 05:49:04;;;;;;;;;44.75;39.00;;;;;11.62;78.76;100850.56;5020503;28;11237;-66
2023/03/18 05:51:42;;;;;;;;;46.75;40.25;;;;;11.61;78.67;100861.56;5034870;28;11210;-66
2023/03/18 05:54:13;;;;;;;;;58.75;46.75;;;;;11.63;78.52;100862.19;5034311;28;11647;-67
2023/03/18 05:56:44;;;;;;;;;59.50;49.00;;;;;11.64;78.70;100874.63;5033771;28;11470;-66
2023/03/18 05:59:12;;;;;;;;;60.75;48.25;;;;;11.66;78.54;100869.03;5031666;28;11567;-66
2023/03/18 06:01:50;;;;;;;;;44.00;39.75;;;;;11.68;78.61;100870.50;5029611;28;11510;-67
2023/03/18 06:04:18;;;;;;;;;47.75;41.25;;;;;11.66;78.38;100871.72;5029578;28;11475;-67
2023/03/18 06:06:44;;;;;;;;;51.25;42.25;;;;;11.66;78.54;100869.88;5061594;28;11489;-67
2023/03/18 06:09:12;;;;;;;;;38.75;33.75;;;;;11.67;78.68;100873.38;5034342;28;11493;-67
2023/03/18 06:11:43;;;;;;;;;40.00;37.00;;;;;11.65;78.40;100879.00;5034529;28;11492;-67
2023/03/18 06:14:11;;;;;;;;;37.00;34.00;;;;;11.63;78.51;100876.50;5029819;28;11483;-66
2023/03/18 06:16:38;;;;;;;;;35.50;32.00;;;;;11.65;78.47;100879.00;5033593;28;11266;-66
2023/03/18 06:19:06;;;;;;;;;35.00;35.00;;;;;11.64;78.41;100875.47;5051887;28;10938;-66
2023/03/18 06:21:33;;;;;;;;;41.50;37.25;;;;;11.64;78.46;100872.78;5030217;28;11120;-66
2023/03/18 06:24:02;;;;;;;;;41.75;36.50;;;;;11.64;78.59;100882.72;5066162;28;11335;-68
2023/03/18 06:26:31;;;;;;;;;40.00;37.50;;;;;11.66;78.55;100885.22;5034264;28;11043;-67
2023/03/18 06:28:59;;;;;;;;;31.25;28.75;;;;;11.66;78.83;100880.66;5033684;28;11037;-67
2023/03/18 06:31:26;;;;;;;;;42.50;33.50;;;;;11.69;78.67;100884.81;5063799;28;10963;-67
2023/03/18 06:33:53;;;;;;;;;29.25;29.25;;;;;11.67;78.44;100885.03;5033287;28;11132;-67
2023/03/18 06:36:22;;;;;;;;;36.50;33.25;;;;;11.70;78.93;100892.69;5032715;28;11833;-66
2023/03/18 06:38:50;;;;;;;;;34.50;34.50;;;;;11.73;78.53;100902.25;5032769;28;11537;-66
2023/03/18 06:41:17;;;;;;;;;37.75;35.00;;;;;11.78;78.64;100903.31;5033050;28;11315;-66
2023/03/18 06:44:01;;;;;;;;;36.25;31.25;;;;;11.86;78.31;100900.47;5027424;28;11292;-66
2023/03/18 06:46:29;;;;;;;;;32.75;32.25;;;;;11.82;78.46;100896.50;5034823;28;10885;-66
2023/03/18 06:48:56;;;;;;;;;34.50;30.00;;;;;11.83;78.42;100902.78;5030322;28;11229;-66
2023/03/18 06:51:28;;;;;;;;;38.50;33.75;;;;;11.85;78.59;100906.09;5023285;28;10891;-68
2023/03/18 06:53:55;;;;;;;;;39.25;35.75;;;;;11.98;79.55;100911.53;5033618;28;10889;-67
2023/03/18 06:56:22;;;;;;;;;33.75;30.50;;;;;12.08;78.57;100903.06;5033426;28;11145;-68
2023/03/18 06:58:59;;;;;;;;;34.50;33.50;;;;;12.10;78.09;100912.59;5032341;28;11000;-68
2023/03/18 07:01:29;;;;;;;;;36.50;33.50;;;;;12.09;77.71;100923.63;5033481;28;10855;-68
2023/03/18 07:03:57;;;;;;;;;32.75;29.00;;;;;12.04;77.75;100921.53;5033247;28;11143;-73
2023/03/18 07:06:26;;;;;;;;;33.00;30.50;;;;;12.01;77.94;100924.63;5028899;28;11241;-66
2023/03/18 07:08:53;;;;;;;;;35.25;29.00;;;;;12.00;78.27;100916.75;5063293;28;11959;-68
2023/03/18 07:11:20;;;;;;;;;32.00;28.25;;;;;11.99;78.18;100925.84;5033314;28;10965;-67
2023/03/18 07:13:48;;;;;;;;;26.75;25.00;;;;;11.99;78.21;100932.09;5031380;28;10898;-67
2023/03/18 07:16:20;;;;;;;;;28.00;23.50;;;;;12.00;78.12;100927.53;5033147;28;10793;-68
2023/03/18 07:18:48;;;;;;;;;32.00;28.25;;;;;12.01;78.57;100934.59;5030176;28;11104;-67
2023/03/18 07:21:15;;;;;;;;;28.75;25.25;;;;;12.01;78.55;100931.88;5016009;28;10801;-68
2023/03/18 07:23:42;;;;;;;;;34.00;31.50;;;;;12.04;78.72;100942.28;5032827;28;10577;-67
2023/03/18 07:26:09;;;;;;;;;37.75;30.25;;;;;12.16;78.69;100948.75;5030466;28;10721;-68
2023/03/18 07:28:37;;;;;;;;;35.00;28.50;;;;;12.27;78.43;100940.06;5032858;28;10829;-68
2023/03/18 07:31:04;;;;;;;;;32.50;30.75;;;;;12.36;77.98;100941.56;5032933;28;11340;-67
2023/03/18 07:33:32;;;;;;;;;27.25;25.50;;;;;12.50;78.40;100933.47;5050257;28;10730;-68
2023/03/18 07:35:58;;;;;;;;;29.00;26.50;;;;;12.66;77.87;100952.00;5032546;28;10552;-68
2023/03/18 07:38:25;;;;;;;;;24.25;22.50;;;;;12.74;77.72;100951.81;5029505;28;10840;-68
2023/03/18 07:40:51;;;;;;;;;27.50;24.25;;;;;12.79;77.23;100957.41;5032234;28;10539;-69
2023/03/18 07:43:17;;;;;;;;;31.75;28.50;;;;;12.77;76.86;100955.97;5050328;28;10603;-68
2023/03/18 07:45:44;;;;;;;;;24.75;23.50;;;;;12.79;77.09;100957.41;5050067;28;10591;-68
2023/03/18 07:48:11;;;;;;;;;29.00;29.00;;;;;12.82;77.41;100958.88;5033053;28;10573;-67
2023/03/18 07:50:37;;;;;;;;;31.75;29.75;;;;;12.93;77.47;100966.38;5049611;28;10803;-68
2023/03/18 07:53:04;;;;;;;;;27.00;24.75;;;;;12.92;76.95;100956.59;5050628;28;10528;-67
2023/03/18 07:55:31;;;;;;;;;30.50;28.25;;;;;12.86;76.77;100958.25;5025555;28;10464;-66
2023/03/18 07:57:58;;;;;;;;;28.25;24.75;;;;;12.84;77.09;100967.59;5050356;28;10669;-67
2023/03/18 08:00:25;;;;;;;;;29.75;28.75;;;;;12.77;76.90;100964.09;5032864;28;10664;-68
2023/03/18 08:02:51;;;;;;;;;32.75;27.00;;;;;12.72;76.86;100961.13;5050263;28;10644;-68
2023/03/18 08:05:18;;;;;;;;;33.75;31.50;;;;;12.67;77.19;100953.66;5047875;28;10663;-67
2023/03/18 08:07:45;;;;;;;;;30.50;29.50;;;;;12.68;77.67;100955.34;5050026;28;10723;-67
2023/03/18 08:10:13;;;;;;;;;32.25;27.25;;;;;12.77;78.13;100946.00;5046686;28;10677;-68
2023/03/18 08:12:41;;;;;;;;;31.75;25.25;;;;;12.88;77.84;100955.34;5048582;28;10481;-67
2023/03/18 08:15:19;;;;;;;;;36.75;31.00;;;;;12.89;77.67;100948.91;5048244;28;11445;-68
2023/03/18 08:17:46;;;;;;;;;27.75;25.00;;;;;13.04;77.91;100952.22;5049657;28;10738;-68
2023/03/18 08:20:13;;;;;;;;;36.00;31.25;;;;;12.99;77.02;100946.63;5046591;28;10392;-68
2023/03/18 08:22:39;;;;;;;;;31.25;30.50;;;;;13.15;77.27;100945.38;5049249;28;10619;-67
2023/03/18 08:25:06;;;;;;;;;34.00;31.75;;;;;13.34;76.92;100949.97;5044023;28;10781;-68
2023/03/18 08:27:33;;;;;;;;;33.50;29.75;;;;;13.48;76.43;100950.78;5047653;28;10385;-69
2023/03/18 08:29:59;;;;;;;;;36.50;33.50;;;;;13.66;76.27;100946.59;5042459;28;10619;-67
2023/03/18 08:32:29;;;;;;;;;40.75;31.50;;;;;13.80;75.88;100945.50;5050225;28;10549;-68
2023/03/18 08:34:56;;;;;;;;;33.00;31.25;;;;;13.85;74.72;100946.53;5049738;28;10707;-67
2023/03/18 08:37:23;;;;;;;;;35.00;29.75;;;;;13.95;74.93;100953.38;5050108;28;10397;-68
2023/03/18 08:39:50;;;;;;;;;35.25;32.75;;;;;14.06;74.68;100964.38;5048777;28;10158;-67
2023/03/18 08:42:16;;;;;;;;;32.75;27.25;;;;;14.20;74.21;100957.00;5032124;28;10284;-68
2023/03/18 08:44:43;;;;;;;;;34.50;31.00;;;;;14.33;73.82;100965.06;5049587;28;10345;-68
2023/03/18 08:47:09;;;;;;;;;39.75;33.50;;;;;14.42;73.00;100953.97;5031143;28;10445;-68
2023/03/18 08:49:36;;;;;;;;;39.50;33.75;;;;;14.47;72.73;100954.19;5049628;28;10459;-68
2023/03/18 08:52:03;;;;;;;;;34.50;31.75;;;;;14.53;72.70;100953.34;5049957;28;10515;-68
2023/03/18 08:54:29;;;;;;;;;33.50;32.50;;;;;14.69;72.84;100962.81;5046048;28;10333;-68
2023/03/18 08:56:56;;;;;;;;;27.00;24.00;;;;;14.82;72.14;100968.97;5053944;28;10558;-69
2023/03/18 08:59:23;;;;;;;;;28.00;25.00;;;;;14.93;71.52;100969.34;5053509;28;9974;-68
2023/03/18 09:01:49;;;;;;;;;35.00;32.00;;;;;14.95;71.16;100970.78;5049566;28;10116;-66
2023/03/18 09:04:16;;;;;;;;;24.25;24.25;;;;;14.95;71.08;100967.22;5052930;28;10211;-67
2023/03/18 09:06:43;;;;;;;;;30.75;28.00;;;;;15.04;71.22;100965.91;5053232;28;10033;-66
2023/03/18 09:09:10;;;;;;;;;34.50;31.50;;;;;15.13;70.59;100970.00;5053532;28;9928;-66
2023/03/18 09:11:38;;;;;;;;;27.25;23.25;;;;;15.23;70.30;100967.63;5054539;28;10269;-66
2023/03/18 09:14:05;;;;;;;;;28.25;26.25;;;;;15.29;69.74;100972.16;5053280;28;9941;-67
2023/03/18 09:16:32;;;;;;;;;34.50;30.50;;;;;15.32;69.77;100971.72;5034439;28;9909;-67
2023/03/18 09:18:58;;;;;;;;;27.00;25.50;;;;;15.39;69.83;100962.69;5053409;28;9915;-66
2023/03/18 09:21:25;;;;;;;;;21.00;20.75;;;;;15.50;70.01;100965.50;5053574;28;9885;-67
2023/03/18 09:23:52;;;;;;;;;28.50;26.25;;;;;15.58;68.90;100972.50;5053071;28;10342;-67
2023/03/18 09:26:18;;;;;;;;;28.00;26.75;;;;;15.69;68.49;100969.09;5053263;28;9705;-67
2023/03/18 09:28:45;;;;;;;;;23.25;19.00;;;;;15.82;68.80;100977.09;5052864;28;9614;-66
2023/03/18 09:31:12;;;;;;;;;34.75;28.50;;;;;15.82;68.30;100979.81;5053117;28;9679;-67
2023/03/18 09:33:40;;;;;;;;;26.75;25.25;;;;;15.70;67.77;100976.19;5052937;28;9923;-67
2023/03/18 09:36:08;;;;;;;;;22.75;21.25;;;;;15.54;68.35;100977.56;5052940;28;9767;-67
2023/03/18 09:38:35;;;;;;;;;21.00;19.75;;;;;15.44;68.66;100979.13;5052836;28;9627;-67
2023/03/18 09:41:39;;;;;;;;;29.50;22.25;;;;;15.37;69.40;100986.50;5035428;28;9504;-66
2023/03/18 09:44:16;;;;;;;;;29.00;25.75;;;;;15.30;69.72;100976.53;5052505;28;9700;-67
2023/03/18 09:47:00;;;;;;;;;27.50;27.50;;;;;15.30;69.29;100983.84;5035208;28;10004;-68
2023/03/18 09:49:59;;;;;;;;;27.75;26.00;;;;;15.45;69.62;100984.34;5052848;28;10806;-67
2023/03/18 09:52:29;;;;;;;;;32.50;27.75;;;;;15.52;69.39;100997.84;5053003;28;9837;-67
2023/03/18 09:55:04;;;;;;;;;29.75;26.00;;;;;15.41;69.13;101002.09;5052266;28;9840;-68
2023/03/18 09:57:44;;;;;;;;;24.25;24.25;;;;;15.25;69.44;101003.50;5052906;28;9847;-66
2023/03/18 10:00:33;;;;;;;;;24.00;22.25;;;;;15.04;69.88;101004.69;5052673;28;9833;-67
2023/03/18 10:03:08;;;;;;;;;34.50;34.25;;;;;14.78;70.24;101013.00;5051832;28;9833;-68
2023/03/18 10:05:49;;;;;;;;;21.50;21.50;;;;;14.73;70.34;101016.34;5034701;28;10124;-67
2023/03/18 10:08:31;;;;;;;;;33.25;31.50;;;;;14.58;70.28;101022.09;5051412;28;9857;-68
2023/03/18 10:11:05;;;;;;;;;36.00;33.25;;;;;14.49;70.72;101025.25;5052293;28;10185;-67
2023/03/18 10:13:44;;;;;;;;;33.25;30.25;;;;;14.49;70.83;101017.13;5052359;28;10231;-68
2023/03/18 10:16:20;;;;;;;;;37.00;36.50;;;;;14.63;71.14;101012.47;5034039;28;10359;-68
2023/03/18 10:18:48;;;;;;;;;33.75;31.25;;;;;14.70;70.37;101003.22;5034217;28;10418;-68
2023/03/18 10:21:38;;;;;;;;;35.00;31.50;;;;;14.94;70.08;101011.63;5052182;28;10237;-68
2023/03/18 10:24:30;;;;;;;;;34.75;33.75;;;;;15.04;68.71;101009.28;5051858;28;10244;-68
2023/03/18 10:27:12;;;;;;;;;32.75;29.75;;;;;15.06;68.22;101008.00;5051860;28;10104;-67
2023/03/18 10:29:45;;;;;;;;;35.00;33.00;;;;;15.14;67.91;101004.19;5052158;28;10058;-67
2023/03/18 10:32:37;;;;;;;;;29.50;29.50;;;;;15.13;67.81;101002.53;5030752;28;10316;-66
2023/03/18 10:35:40;;;;;;;;;37.75;33.25;;;;;15.18;68.54;101000.00;5043367;28;10183;-67
2023/03/18 10:38:17;;;;;;;;;33.75;29.75;;;;;15.31;68.25;100991.78;5051651;28;10235;-67
2023/03/18 10:40:46;;;;;;;;;36.00;30.75;;;;;15.51;67.60;100994.28;5052006;28;10249;-67
2023/03/18 10:43:29;;;;;;;;;30.00;28.75;;;;;15.56;67.18;101001.78;5051402;28;10209;-66
2023/03/18 10:46:01;;;;;;;;;28.00;26.00;;;;;15.45;66.82;100997.06;5050812;28;10256;-66
2023/03/18 10:48:42;;;;;;;;;37.50;37.00;;;;;15.40;67.35;100999.63;5033762;28;9933;-68
2023/03/18 10:51:17;;;;;;;;;27.75;26.50;;;;;15.40;67.45;100999.63;5051405;28;10208;-67
2023/03/18 10:54:25;;;;;;;;;35.25;30.00;;;;;15.55;66.95;100995.50;5051444;28;10117;-68
2023/03/18 10:56:53;;;;;;;;;28.75;25.75;;;;;15.60;66.09;100997.56;5037603;28;10107;-66
2023/03/18 10:59:23;;;;;;;;;24.75;23.00;;;;;15.50;66.23;100989.09;5051752;28;9939;-67
2023/03/18 11:02:31;;;;;;;;;30.50;30.25;;;;;15.44;66.44;100988.09;5051084;28;9915;-67
2023/03/18 11:05:05;;;;;;;;;25.25;22.25;;;;;15.32;66.97;100998.03;5050755;28;10163;-66
2023/03/18 11:07:32;;;;;;;;;36.50;31.00;;;;;15.23;66.93;100996.63;5042476;28;9756;-67
2023/03/18 11:10:16;;;;;;;;;32.25;28.75;;;;;15.25;67.16;100994.53;5029810;28;9996;-67
2023/03/18 11:12:43;;;;;;;;;32.00;28.00;;;;;15.27;67.01;100993.25;5049153;28;9835;-67
2023/03/18 11:15:11;;;;;;;;;32.00;30.50;;;;;15.26;67.18;101001.59;5050567;28;9924;-66
2023/03/18 11:17:39;;;;;;;;;27.50;26.50;;;;;15.30;67.20;100997.41;5029718;28;10607;-67
2023/03/18 11:20:36;;;;;;;;;31.75;31.25;;;;;15.34;67.14;101004.88;5030415;28;10004;-67
2023/03/18 11:23:12;;;;;;;;;30.00;26.00;;;;;15.33;66.91;101003.22;5031336;28;9937;-67